createdAt,value
2023-01-23T00:00:52.710Z,13.89
2023-01-23T00:03:56.501Z,13.99
2023-01-23T00:07:00.456Z,14.09
2023-01-23T00:10:02.627Z,14.26
2023-01-23T00:13:05.082Z,14.21
2023-01-23T00:16:13.044Z,14.21
2023-01-23T00:19:15.237Z,14.22
2023-01-23T00:22:19.142Z,14.34
2023-01-23T00:25:22.147Z,14.27
2023-01-23T00:28:24.199Z,13.96
2023-01-23T00:31:29.316Z,13.93
2023-01-23T00:34:33.000Z,13.95
2023-01-23T00:37:35.297Z,13.97
2023-01-23T00:40:37.682Z,13.84
2023-01-23T00:43:42.532Z,13.86
2023-01-23T00:46:45.824Z,13.78
2023-01-23T00:49:48.184Z,13.77
2023-01-23T00:52:50.548Z,14.07
2023-01-23T00:55:53.705Z,14.15
2023-01-23T00:58:56.796Z,14.24
2023-01-23T01:01:59.106Z,14.25
2023-01-23T01:05:02.037Z,14.32
2023-01-23T01:08:06.231Z,14.06
2023-01-23T01:11:08.728Z,14.12
2023-01-23T01:14:10.919Z,13.74
2023-01-23T01:17:14.131Z,13.69
2023-01-23T01:20:16.818Z,13.53
2023-01-23T01:23:20.847Z,13.53
2023-01-23T01:26:23.884Z,13.67
2023-01-23T01:29:25.899Z,13.62
2023-01-23T01:32:27.980Z,13.43
2023-01-23T01:35:30.055Z,13.77
2023-01-23T01:38:32.215Z,13.94
2023-01-23T01:41:34.452Z,14.05
2023-01-23T01:44:57.127Z,14.11
2023-01-23T01:47:59.170Z,13.96
2023-01-23T01:51:04.274Z,13.97
2023-01-23T01:54:38.534Z,13.90
2023-01-23T01:57:45.822Z,13.76
2023-01-23T02:00:53.836Z,13.70
2023-01-23T02:03:55.911Z,13.57
2023-01-23T02:07:01.124Z,13.42
2023-01-23T02:10:06.101Z,13.55
2023-01-23T02:13:33.855Z,13.59
2023-01-23T02:16:41.777Z,13.63
2023-01-23T02:20:09.563Z,13.81
2023-01-23T02:23:43.411Z,13.93
2023-01-23T02:26:48.078Z,13.87
2023-01-23T02:29:53.339Z,13.86
2023-01-23T02:32:56.519Z,13.85
2023-01-23T02:36:00.968Z,13.86
2023-01-23T02:39:14.865Z,13.83
2023-01-23T02:42:17.623Z,13.63
2023-01-23T02:45:23.905Z,13.49
2023-01-23T02:48:26.120Z,13.38
2023-01-23T02:51:28.280Z,13.48
2023-01-23T02:54:31.997Z,13.25
2023-01-23T02:57:34.976Z,13.37
2023-01-23T03:00:37.168Z,13.50
2023-01-23T03:03:42.316Z,13.60
2023-01-23T03:06:44.449Z,13.84
2023-01-23T03:09:48.030Z,13.70
2023-01-23T03:12:50.180Z,13.77
2023-01-23T03:15:56.495Z,13.80
2023-01-23T03:19:01.731Z,13.74
2023-01-23T03:22:05.368Z,13.69
2023-01-23T03:25:07.998Z,13.74
2023-01-23T03:28:33.750Z,13.38
2023-01-23T03:31:35.976Z,13.50
2023-01-23T03:34:38.863Z,13.40
2023-01-23T03:37:41.936Z,13.35
2023-01-23T03:41:14.645Z,13.39
2023-01-23T03:44:19.437Z,13.11
2023-01-23T03:47:22.325Z,13.39
2023-01-23T03:50:25.036Z,13.61
2023-01-23T03:53:27.418Z,13.55
2023-01-23T03:56:29.881Z,13.67
2023-01-23T03:59:32.556Z,13.64
2023-01-23T04:02:34.947Z,13.57
2023-01-23T04:05:39.363Z,13.67
2023-01-23T04:08:42.409Z,13.62
2023-01-23T04:11:45.202Z,13.49
2023-01-23T04:14:48.630Z,13.33
2023-01-23T04:17:51.545Z,13.23
2023-01-23T04:20:54.331Z,13.31
2023-01-23T04:23:56.691Z,13.33
2023-01-23T04:26:58.880Z,13.26
2023-01-23T04:30:03.657Z,13.36
2023-01-23T04:33:06.803Z,13.64
2023-01-23T04:36:11.494Z,13.86
2023-01-23T04:39:13.746Z,13.37
2023-01-23T04:42:19.030Z,13.21
2023-01-23T04:45:38.935Z,13.13
2023-01-23T04:49:13.429Z,13.01
2023-01-23T04:52:15.714Z,13.34
2023-01-23T04:55:28.294Z,14.75
2023-01-23T04:58:32.971Z,15.50
2023-01-23T05:01:38.432Z,16.12
2023-01-23T05:04:41.200Z,16.01
2023-01-23T05:07:43.973Z,16.72
2023-01-23T05:10:49.551Z,17.33
2023-01-23T05:13:53.974Z,16.93
2023-01-23T05:16:56.820Z,16.94
2023-01-23T05:20:10.277Z,17.71
2023-01-23T05:23:13.584Z,17.51
2023-01-23T05:26:22.416Z,18.10
2023-01-23T05:29:24.502Z,18.12
2023-01-23T05:32:38.239Z,17.39
2023-01-23T05:35:46.507Z,18.01
2023-01-23T05:38:48.847Z,17.99
2023-01-23T05:41:52.463Z,17.45
2023-01-23T05:45:26.686Z,17.70
2023-01-23T05:48:29.348Z,18.27
2023-01-23T05:51:34.587Z,17.88
2023-01-23T05:54:36.667Z,18.02
2023-01-23T05:57:38.844Z,18.75
2023-01-23T06:00:49.868Z,17.94
2023-01-23T06:04:14.213Z,18.65
2023-01-23T06:07:27.443Z,18.14
2023-01-23T06:10:32.604Z,17.85
2023-01-23T06:13:36.617Z,18.05
2023-01-23T06:16:39.808Z,18.97
2023-01-23T06:19:43.661Z,22.49
2023-01-23T06:22:46.939Z,21.80
2023-01-23T06:25:49.784Z,21.08
2023-01-23T06:28:53.011Z,21.05
2023-01-23T06:31:56.732Z,20.23
2023-01-23T06:34:58.898Z,21.07
2023-01-23T06:38:00.925Z,21.73
2023-01-23T06:41:04.111Z,22.07
2023-01-23T06:44:11.148Z,22.45
2023-01-23T06:47:13.518Z,22.81
2023-01-23T06:50:17.795Z,22.85
2023-01-23T06:53:19.926Z,22.28
2023-01-23T06:56:24.825Z,21.90
2023-01-23T06:59:27.817Z,21.86
2023-01-23T07:02:31.562Z,21.58
2023-01-23T07:05:37.540Z,21.32
2023-01-23T07:08:40.149Z,21.02
2023-01-23T07:11:43.092Z,20.72
2023-01-23T07:14:45.309Z,20.40
2023-01-23T07:17:50.826Z,20.14
2023-01-23T07:20:52.973Z,20.23
2023-01-23T07:23:55.042Z,20.23
2023-01-23T07:26:58.949Z,19.94
2023-01-23T07:30:01.025Z,19.67
2023-01-23T07:33:03.831Z,19.68
2023-01-23T07:36:07.208Z,19.53
2023-01-23T07:39:10.016Z,19.57
2023-01-23T07:42:12.151Z,19.49
2023-01-23T07:45:17.125Z,19.40
2023-01-23T07:48:19.372Z,19.27
2023-01-23T07:51:21.415Z,19.19
2023-01-23T07:54:23.583Z,19.23
2023-01-23T07:57:25.604Z,19.16
2023-01-23T08:00:29.703Z,19.08
2023-01-23T08:03:33.455Z,19.03
2023-01-23T08:06:36.721Z,18.93
2023-01-23T08:09:38.979Z,18.93
2023-01-23T08:12:41.090Z,18.85
2023-01-23T08:15:43.218Z,18.74
2023-01-23T08:18:46.365Z,18.13
2023-01-23T08:21:48.491Z,16.59
2023-01-23T08:24:50.653Z,15.55
2023-01-23T08:27:52.885Z,15.02
2023-01-23T08:30:55.561Z,14.76
2023-01-23T08:33:57.726Z,14.54
2023-01-23T08:37:02.034Z,14.51
2023-01-23T08:40:05.085Z,14.33
2023-01-23T08:43:07.256Z,14.41
2023-01-23T08:46:11.868Z,14.44
2023-01-23T08:49:14.055Z,14.35
2023-01-23T08:52:16.429Z,14.09
2023-01-23T08:55:19.036Z,13.87
2023-01-23T08:58:22.602Z,14.00
2023-01-23T09:01:27.752Z,13.75
2023-01-23T09:04:32.002Z,13.72
2023-01-23T09:07:37.472Z,13.70
2023-01-23T09:10:39.545Z,13.60
2023-01-23T09:13:41.967Z,13.36
2023-01-23T09:16:44.364Z,13.52
2023-01-23T09:19:46.342Z,13.51
2023-01-23T09:22:48.591Z,13.57
2023-01-23T09:25:50.792Z,13.37
2023-01-23T09:28:55.261Z,13.31
2023-01-23T09:31:58.740Z,13.31
2023-01-23T09:35:00.893Z,13.34
2023-01-23T09:38:06.912Z,13.37
2023-01-23T09:41:20.068Z,13.55
2023-01-23T09:44:42.788Z,13.64
2023-01-23T09:47:59.349Z,13.56
2023-01-23T09:51:12.022Z,13.46
2023-01-23T09:54:34.830Z,13.69
2023-01-23T09:57:43.841Z,13.96
2023-01-23T10:00:47.483Z,14.00
2023-01-23T10:03:50.041Z,14.02
2023-01-23T10:07:22.816Z,13.93
2023-01-23T10:10:52.686Z,13.76
2023-01-23T10:14:00.993Z,13.80
2023-01-23T10:17:37.792Z,13.48
2023-01-23T10:21:07.381Z,13.40
2023-01-23T10:24:40.685Z,13.41
2023-01-23T10:27:46.455Z,13.50
2023-01-23T10:30:55.119Z,13.53
2023-01-23T10:34:09.333Z,13.07
2023-01-23T10:37:15.627Z,13.28
2023-01-23T10:40:40.418Z,13.16
2023-01-23T10:43:43.618Z,13.08
2023-01-23T10:46:56.547Z,12.96
2023-01-23T10:49:58.673Z,13.22
2023-01-23T10:53:09.335Z,13.09
2023-01-23T10:56:17.594Z,13.06
2023-01-23T10:59:25.870Z,13.06
2023-01-23T11:02:39.317Z,13.09
2023-01-23T11:05:52.558Z,13.38
2023-01-23T11:09:00.704Z,13.70
2023-01-23T11:12:06.969Z,13.26
2023-01-23T11:15:28.330Z,13.08
2023-01-23T11:18:36.180Z,12.96
2023-01-23T11:21:49.074Z,12.92
2023-01-23T11:24:51.203Z,12.82
2023-01-23T11:28:01.630Z,12.89
2023-01-23T11:31:16.799Z,13.00
2023-01-23T11:34:23.730Z,12.98
2023-01-23T11:37:32.323Z,12.83
2023-01-23T11:40:34.525Z,12.82
2023-01-23T11:43:36.637Z,12.99
2023-01-23T11:47:08.724Z,13.06
2023-01-23T11:50:22.775Z,13.09
2023-01-23T11:53:44.899Z,13.20
2023-01-23T11:57:01.435Z,13.07
2023-01-23T12:00:31.967Z,13.08
2023-01-23T12:03:39.920Z,13.03
2023-01-23T12:07:13.887Z,12.83
2023-01-23T12:10:42.642Z,12.89
2023-01-23T12:13:47.413Z,12.86
2023-01-23T12:17:26.540Z,12.91
2023-01-23T12:20:53.736Z,12.91
2023-01-23T12:23:56.497Z,13.06
2023-01-23T12:27:19.426Z,13.04
2023-01-23T12:30:23.678Z,12.98
2023-01-23T12:33:33.865Z,13.04
2023-01-23T12:37:06.242Z,13.15
2023-01-23T12:40:22.938Z,12.97
2023-01-23T12:43:48.345Z,13.01
2023-01-23T12:47:14.271Z,13.11
2023-01-23T12:50:22.380Z,13.17
2023-01-23T12:53:24.985Z,13.09
2023-01-23T12:56:34.083Z,13.11
2023-01-23T12:59:53.991Z,13.14
2023-01-23T13:03:46.449Z,13.25
2023-01-23T13:07:03.724Z,13.11
2023-01-23T13:10:59.313Z,13.32
2023-01-23T13:14:01.951Z,13.01
2023-01-23T13:17:31.249Z,13.00
2023-01-23T13:21:15.205Z,13.17
2023-01-23T13:25:06.327Z,13.31
2023-01-23T13:28:59.278Z,13.15
2023-01-23T13:32:22.095Z,13.11
2023-01-23T13:35:39.439Z,13.28
2023-01-23T13:38:42.518Z,13.23
2023-01-23T13:41:52.427Z,13.15
2023-01-23T13:45:21.583Z,13.26
2023-01-23T14:21:41.980Z,13.30
2023-01-23T14:24:51.633Z,13.29
2023-01-23T14:28:06.320Z,13.22
2023-01-23T14:31:30.295Z,13.14
2023-01-23T14:34:43.199Z,13.19
2023-01-23T14:37:45.750Z,13.21
2023-01-23T14:40:50.915Z,13.23
2023-01-23T14:43:58.353Z,13.28
2023-01-23T14:47:03.877Z,13.17
2023-01-23T14:50:30.296Z,13.15
2023-01-23T14:53:33.357Z,13.22
2023-01-23T14:56:38.766Z,13.16
2023-01-23T14:59:43.728Z,13.20
2023-01-23T15:02:51.482Z,13.18
2023-01-23T15:05:59.651Z,13.07
2023-01-23T15:09:16.371Z,13.20
2023-01-23T15:12:19.136Z,13.23
2023-01-23T15:15:23.683Z,13.23
2023-01-23T15:18:30.257Z,13.20
2023-01-23T15:21:40.007Z,13.12
2023-01-23T15:24:44.237Z,13.19
2023-01-23T15:27:47.191Z,13.07
2023-01-23T15:30:49.648Z,13.09
2023-01-23T15:33:56.848Z,13.12
2023-01-23T15:37:14.233Z,13.37
2023-01-23T15:40:18.845Z,13.25
2023-01-23T15:43:31.464Z,13.16
2023-01-23T15:46:46.379Z,13.00
2023-01-23T15:49:53.101Z,13.21
2023-01-23T15:52:57.005Z,13.41
2023-01-23T15:56:02.340Z,13.43
2023-01-23T15:59:14.074Z,13.55
2023-01-23T16:02:29.980Z,14.17
2023-01-23T16:05:37.455Z,14.60
2023-01-23T16:08:40.777Z,14.86
2023-01-23T16:11:45.523Z,14.68
2023-01-23T16:14:51.221Z,14.83
2023-01-23T16:17:55.152Z,15.08
2023-01-23T16:20:58.213Z,15.01
2023-01-23T16:24:00.393Z,14.93
2023-01-23T16:27:04.262Z,14.89
2023-01-23T16:30:16.567Z,14.81
2023-01-23T16:33:21.064Z,14.85
2023-01-23T16:36:23.451Z,14.83
2023-01-23T16:39:30.908Z,15.23
2023-01-23T16:42:34.430Z,15.62
2023-01-23T16:45:40.507Z,15.72
2023-01-23T16:48:55.239Z,15.75
2023-01-23T16:55:21.412Z,16.45
2023-01-23T16:58:33.013Z,16.36
2023-01-23T17:01:51.190Z,16.61
2023-01-23T17:05:23.089Z,16.72
2023-01-23T17:08:48.890Z,16.74
2023-01-23T17:11:56.106Z,16.65
2023-01-23T17:14:59.349Z,16.55
2023-01-23T17:18:02.093Z,16.42
2023-01-23T17:21:05.955Z,16.51
2023-01-23T17:24:15.408Z,16.45
2023-01-23T17:27:17.603Z,16.49
2023-01-23T17:30:23.398Z,16.33
2023-01-23T17:33:31.748Z,15.96
2023-01-23T17:36:34.034Z,16.06
2023-01-23T17:39:36.601Z,16.28
2023-01-23T17:42:39.480Z,16.32
2023-01-23T17:45:44.364Z,16.28
2023-01-23T17:48:46.598Z,16.33
2023-01-23T17:51:48.691Z,15.73
2023-01-23T17:54:50.974Z,15.66
2023-01-23T17:57:53.920Z,15.51
2023-01-23T18:00:56.333Z,15.48
2023-01-23T18:07:52.987Z,14.36
2023-01-23T18:10:59.051Z,14.20
2023-01-23T18:14:28.915Z,14.85
2023-01-23T18:17:38.183Z,16.27
2023-01-23T18:20:40.591Z,15.72
2023-01-23T18:23:45.583Z,16.50
2023-01-23T18:26:59.542Z,16.83
2023-01-23T18:30:33.411Z,16.67
2023-01-23T18:33:52.029Z,17.09
2023-01-23T18:37:28.337Z,17.96
2023-01-23T18:40:48.870Z,16.89
2023-01-23T18:43:57.553Z,17.61
2023-01-23T18:47:05.770Z,18.20
2023-01-23T18:50:09.216Z,17.78
2023-01-23T18:53:43.685Z,17.54
2023-01-23T18:56:53.025Z,18.37
2023-01-23T19:00:04.578Z,18.54
2023-01-23T19:03:15.975Z,18.12
2023-01-23T19:06:43.332Z,18.88
2023-01-23T19:09:47.805Z,19.06
2023-01-23T19:12:58.609Z,18.78
2023-01-23T19:16:16.073Z,18.43
2023-01-23T19:19:31.211Z,19.36
2023-01-23T19:22:48.957Z,19.14
2023-01-23T19:25:51.529Z,17.99
2023-01-23T19:28:55.525Z,18.22
2023-01-23T19:32:05.029Z,17.88
2023-01-23T19:35:14.015Z,17.46
2023-01-23T19:38:18.059Z,17.39
2023-01-23T19:41:23.259Z,18.63
2023-01-23T19:44:29.135Z,18.34
2023-01-23T19:47:32.294Z,17.58
2023-01-23T19:50:36.896Z,17.92
2023-01-23T19:53:39.605Z,19.19
2023-01-23T19:56:43.337Z,19.25
2023-01-23T19:59:46.545Z,18.92
2023-01-23T20:02:49.479Z,19.07
2023-01-23T20:05:52.097Z,19.95
2023-01-23T20:08:54.339Z,19.12
2023-01-23T20:11:58.438Z,18.26
2023-01-23T20:15:00.934Z,18.96
2023-01-23T20:18:04.051Z,19.52
2023-01-23T20:21:09.116Z,18.53
2023-01-23T20:24:11.603Z,18.98
2023-01-23T20:27:13.922Z,19.57
2023-01-23T20:30:21.370Z,19.76
2023-01-23T20:33:25.501Z,19.06
2023-01-23T20:36:29.663Z,19.41
2023-01-23T20:39:32.159Z,19.74
2023-01-23T20:42:35.664Z,19.08
2023-01-23T20:45:55.864Z,19.46
2023-01-23T20:48:58.098Z,19.98
2023-01-23T20:52:21.132Z,19.83
2023-01-23T20:55:23.628Z,19.25
2023-01-23T20:58:47.993Z,19.94
2023-01-23T21:02:10.678Z,19.87
2023-01-23T21:05:12.752Z,20.04
2023-01-23T21:08:16.404Z,19.71
2023-01-23T21:11:21.348Z,19.80
2023-01-23T21:14:25.053Z,20.37
2023-01-23T21:17:27.789Z,20.00
2023-01-23T21:20:30.423Z,19.86
2023-01-23T21:23:37.140Z,18.88
2023-01-23T21:26:41.893Z,17.88
2023-01-23T21:29:54.605Z,17.50
2023-01-23T21:32:57.541Z,17.13
2023-01-23T21:36:02.673Z,16.72
2023-01-23T21:39:24.899Z,16.50
2023-01-23T21:42:27.976Z,16.37
2023-01-23T21:45:30.480Z,16.37
2023-01-23T21:48:33.995Z,16.05
2023-01-23T21:51:37.428Z,15.81
2023-01-23T21:54:42.152Z,15.65
2023-01-23T21:57:47.884Z,15.41
2023-01-23T22:01:18.687Z,15.32
2023-01-23T22:04:25.944Z,15.21
2023-01-23T22:07:28.757Z,15.20
2023-01-23T22:10:31.910Z,15.00
2023-01-23T22:13:36.985Z,15.03
2023-01-23T22:16:54.597Z,15.01
2023-01-23T22:19:58.293Z,14.97
2023-01-23T22:23:01.223Z,14.88
2023-01-23T22:26:07.950Z,14.93
2023-01-23T22:29:13.780Z,14.95
2023-01-23T22:32:18.917Z,14.96
2023-01-23T22:35:24.746Z,15.00
2023-01-23T22:38:26.927Z,14.61
2023-01-23T22:41:29.022Z,14.80
2023-01-23T22:44:31.472Z,14.71
2023-01-23T22:47:36.795Z,14.80
2023-01-23T22:50:42.662Z,14.78
2023-01-23T22:53:45.135Z,14.54
2023-01-23T22:56:49.368Z,14.60
2023-01-23T22:59:52.373Z,14.51
2023-01-23T23:02:54.439Z,14.55
2023-01-23T23:06:08.085Z,14.53
2023-01-23T23:09:11.104Z,14.47
2023-01-23T23:12:14.206Z,14.42
2023-01-23T23:15:17.868Z,14.40
2023-01-23T23:18:20.205Z,14.38
2023-01-23T23:21:29.399Z,14.34
2023-01-23T23:24:37.542Z,14.20
2023-01-23T23:27:40.311Z,14.26
2023-01-23T23:30:42.391Z,14.36
2023-01-23T23:33:45.436Z,14.19
2023-01-23T23:36:49.272Z,14.12
2023-01-23T23:39:52.531Z,14.03
2023-01-23T23:42:56.088Z,13.97
2023-01-23T23:46:00.720Z,13.89
2023-01-23T23:49:06.591Z,13.75
2023-01-23T23:52:10.311Z,13.63
2023-01-23T23:55:13.267Z,13.60
2023-01-23T23:58:16.936Z,13.54
